Terminal Aerodrome Forecast
Issued by NWS

Home | Current Version | Previous Version | Text Only | Print | Product List | Glossary On
Versions: 1 2 3 4 5 6 7 8 9 10 11 12 13 14 15 16 17 18 19 20 21 22 23 24
000
FTUS42 KJAX 260833 AAC
TAFVQQ
TAF AMD
KVQQ 260833Z 2609/2706 23010G15KT P6SM BKN010
     FM261300 25011G18KT P6SM SCT020 SCT200
     FM261600 26013G23KT P6SM VCTS SCT040CB BKN250
     FM262200 23008KT P6SM VCSH SCT030 BKN150 BKN250=

USA.gov is the U.S. government's official web portal to all federal, state and local government web resources and services.